Pays
Station

 

Conditions  météo  pour  Reykjavik  -  Islande    Islande

  
11 °C
    
 
 

METAR pour Reykjavik :

BIRK 160500Z 07015G29KT 030V090 9999 BKN048 OVC055 11/03 Q0993

 

Voici le bulletin pour Reykjavik - Islande.
 
Le bulletin a été fait il y a un moment, à 05:00 UTC .
Le vent soufflait à la vitesse de 7.7 mètres par seconde avec des rafales jusqu'à 14.9 mètres par seconde de Est/Nord-est (070°), variant entre Nord/Nord-est (030°) et Est (090°).
 
La température était de 11 °C, avec un point de rosée à 3 °C.
La pression atmosphérique était de 993 hPa.
L'humidité relative était de 57.7%.
 
Il y avait 5 à 7/8ème de nébulosité à une hauteur de 1463 mètres. Le ciel était nuageux à partir d'une hauteur de 1676 mètres
 
La visibilité globale était de supérieure à 10 kilomètres.
 

 
 
 

Pays :   A   B   C   D   E   F   G   H   I   J   K   L   M   N   O   P   Q   R   S   T   U   V   W   Y   Z

 

Partenaires :  Info Météo avec Met'info
Météo Marine avec MeteoMarine.net
Infos Site  |  Infos Légales  |  Crédits  |  Confidentialité
Contactez-nous  |  Ajouter aux favoris
© 2013-2019 METAR - Tous droits réservés